sensor_id;sensor_type;location;lat;lon;timestamp;temperature;humidity
10901;DHT22;5503;53.208;10.392;2023-03-14T00:00:49;13.30;1.00
10901;DHT22;5503;53.208;10.392;2023-03-14T00:03:16;13.20;1.00
10901;DHT22;5503;53.208;10.392;2023-03-14T00:05:43;13.20;1.00
10901;DHT22;5503;53.208;10.392;2023-03-14T00:08:10;13.40;1.00
10901;DHT22;5503;53.208;10.392;2023-03-14T00:10:38;14.60;1.00
10901;DHT22;5503;53.208;10.392;2023-03-14T00:13:05;13.40;1.00
10901;DHT22;5503;53.208;10.392;2023-03-14T00:15:32;13.40;1.00
10901;DHT22;5503;53.208;10.392;2023-03-14T00:17:59;13.30;1.00
10901;DHT22;5503;53.208;10.392;2023-03-14T00:20:26;13.30;1.00
10901;DHT22;5503;53.208;10.392;2023-03-14T00:22:53;13.30;1.00
10901;DHT22;5503;53.208;10.392;2023-03-14T00:25:20;11.90;1.00
10901;DHT22;5503;53.208;10.392;2023-03-14T00:27:50;14.90;1.00
10901;DHT22;5503;53.208;10.392;2023-03-14T00:30:17;13.50;1.00
10901;DHT22;5503;53.208;10.392;2023-03-14T00:32:44;13.50;1.00
10901;DHT22;5503;53.208;10.392;2023-03-14T00:35:11;14.30;1.00
10901;DHT22;5503;53.208;10.392;2023-03-14T00:37:38;13.50;1.00
10901;DHT22;5503;53.208;10.392;2023-03-14T00:40:06;13.70;1.00
10901;DHT22;5503;53.208;10.392;2023-03-14T00:42:33;13.90;1.00
10901;DHT22;5503;53.208;10.392;2023-03-14T00:45:02;14.00;1.00
10901;DHT22;5503;53.208;10.392;2023-03-14T00:47:29;14.10;1.00
10901;DHT22;5503;53.208;10.392;2023-03-14T00:49:56;14.20;1.00
10901;DHT22;5503;53.208;10.392;2023-03-14T00:52:23;16.00;1.00
10901;DHT22;5503;53.208;10.392;2023-03-14T00:54:50;14.40;1.00
10901;DHT22;5503;53.208;10.392;2023-03-14T00:57:17;14.00;1.00
10901;DHT22;5503;53.208;10.392;2023-03-14T00:59:43;14.00;1.00
10901;DHT22;5503;53.208;10.392;2023-03-14T01:02:12;13.90;1.00
10901;DHT22;5503;53.208;10.392;2023-03-14T01:04:39;13.90;1.00
10901;DHT22;5503;53.208;10.392;2023-03-14T01:07:08;14.30;1.00
10901;DHT22;5503;53.208;10.392;2023-03-14T01:09:35;13.80;1.00
10901;DHT22;5503;53.208;10.392;2023-03-14T01:12:02;13.70;1.00
10901;DHT22;5503;53.208;10.392;2023-03-14T01:14:29;13.70;1.00
10901;DHT22;5503;53.208;10.392;2023-03-14T01:16:56;13.80;1.00
10901;DHT22;5503;53.208;10.392;2023-03-14T01:19:27;13.80;1.00
10901;DHT22;5503;53.208;10.392;2023-03-14T01:21:54;13.90;1.00
10901;DHT22;5503;53.208;10.392;2023-03-14T01:24:21;14.10;1.00
10901;DHT22;5503;53.208;10.392;2023-03-14T01:26:48;14.00;1.00
10901;DHT22;5503;53.208;10.392;2023-03-14T01:29:15;13.90;1.00
10901;DHT22;5503;53.208;10.392;2023-03-14T01:31:42;13.80;1.00
10901;DHT22;5503;53.208;10.392;2023-03-14T01:34:09;13.80;1.00
10901;DHT22;5503;53.208;10.392;2023-03-14T01:36:37;13.70;1.00
10901;DHT22;5503;53.208;10.392;2023-03-14T01:39:04;13.70;1.00
10901;DHT22;5503;53.208;10.392;2023-03-14T01:41:32;12.30;1.00
10901;DHT22;5503;53.208;10.392;2023-03-14T01:43:59;13.40;1.00
10901;DHT22;5503;53.208;10.392;2023-03-14T01:46:37;13.40;1.00
10901;DHT22;5503;53.208;10.392;2023-03-14T01:49:09;13.40;1.00
10901;DHT22;5503;53.208;10.392;2023-03-14T01:51:44;13.50;1.00
10901;DHT22;5503;53.208;10.392;2023-03-14T01:54:16;13.40;1.00
10901;DHT22;5503;53.208;10.392;2023-03-14T01:56:46;13.40;1.00
10901;DHT22;5503;53.208;10.392;2023-03-14T01:59:14;13.40;1.00
10901;DHT22;5503;53.208;10.392;2023-03-14T02:01:43;13.40;1.00
10901;DHT22;5503;53.208;10.392;2023-03-14T02:04:11;13.20;2.50
10901;DHT22;5503;53.208;10.392;2023-03-14T02:06:47;12.80;19.20
10901;DHT22;5503;53.208;10.392;2023-03-14T02:11:43;12.70;21.80
10901;DHT22;5503;53.208;10.392;2023-03-14T02:14:26;12.90;22.30
10901;DHT22;5503;53.208;10.392;2023-03-14T02:19:29;12.60;22.70
10901;DHT22;5503;53.208;10.392;2023-03-14T02:22:05;12.80;16.50
10901;DHT22;5503;53.208;10.392;2023-03-14T02:24:38;12.70;21.00
10901;DHT22;5503;53.208;10.392;2023-03-14T02:27:12;12.50;22.00
10901;DHT22;5503;53.208;10.392;2023-03-14T02:29:43;15.90;32.20
10901;DHT22;5503;53.208;10.392;2023-03-14T02:32:13;12.10;35.20
10901;DHT22;5503;53.208;10.392;2023-03-14T02:34:42;11.90;42.60
10901;DHT22;5503;53.208;10.392;2023-03-14T02:37:13;11.80;47.30
10901;DHT22;5503;53.208;10.392;2023-03-14T02:39:43;11.50;57.20
10901;DHT22;5503;53.208;10.392;2023-03-14T02:42:13;7.80;69.80
10901;DHT22;5503;53.208;10.392;2023-03-14T02:44:51;10.90;90.60
10901;DHT22;5503;53.208;10.392;2023-03-14T02:47:21;10.60;98.40
10901;DHT22;5503;53.208;10.392;2023-03-14T02:49:49;10.60;98.60
10901;DHT22;5503;53.208;10.392;2023-03-14T02:54:44;10.70;99.90
10901;DHT22;5503;53.208;10.392;2023-03-14T02:57:12;11.00;97.20
10901;DHT22;5503;53.208;10.392;2023-03-14T02:59:39;11.00;93.20
10901;DHT22;5503;53.208;10.392;2023-03-14T03:02:06;12.30;93.20
10901;DHT22;5503;53.208;10.392;2023-03-14T03:04:33;14.50;91.40
10901;DHT22;5503;53.208;10.392;2023-03-14T03:06:59;11.40;79.90
10901;DHT22;5503;53.208;10.392;2023-03-14T03:09:26;11.40;71.80
10901;DHT22;5503;53.208;10.392;2023-03-14T03:11:53;11.50;61.30
10901;DHT22;5503;53.208;10.392;2023-03-14T03:14:22;11.40;56.50
10901;DHT22;5503;53.208;10.392;2023-03-14T03:16:48;11.60;48.90
10901;DHT22;5503;53.208;10.392;2023-03-14T03:19:15;11.90;38.00
10901;DHT22;5503;53.208;10.392;2023-03-14T03:21:43;11.80;28.60
10901;DHT22;5503;53.208;10.392;2023-03-14T03:24:10;11.90;28.30
10901;DHT22;5503;53.208;10.392;2023-03-14T03:26:37;11.90;27.40
10901;DHT22;5503;53.208;10.392;2023-03-14T03:29:04;11.90;27.50
10901;DHT22;5503;53.208;10.392;2023-03-14T03:31:32;12.00;20.10
10901;DHT22;5503;53.208;10.392;2023-03-14T03:33:59;13.90;17.30
10901;DHT22;5503;53.208;10.392;2023-03-14T03:36:26;10.80;13.90
10901;DHT22;5503;53.208;10.392;2023-03-14T03:38:53;12.10;15.30
10901;DHT22;5503;53.208;10.392;2023-03-14T03:41:20;12.20;5.90
10901;DHT22;5503;53.208;10.392;2023-03-14T03:43:47;12.20;6.50
10901;DHT22;5503;53.208;10.392;2023-03-14T03:46:14;12.40;2.30
10901;DHT22;5503;53.208;10.392;2023-03-14T03:48:42;12.50;1.00
10901;DHT22;5503;53.208;10.392;2023-03-14T03:51:12;12.40;1.00
10901;DHT22;5503;53.208;10.392;2023-03-14T03:53:40;12.50;1.00
10901;DHT22;5503;53.208;10.392;2023-03-14T03:56:08;12.50;1.00
10901;DHT22;5503;53.208;10.392;2023-03-14T03:58:35;12.70;1.00
10901;DHT22;5503;53.208;10.392;2023-03-14T04:01:05;12.90;1.00
10901;DHT22;5503;53.208;10.392;2023-03-14T04:03:32;12.70;1.00
10901;DHT22;5503;53.208;10.392;2023-03-14T04:06:02;12.50;1.00
10901;DHT22;5503;53.208;10.392;2023-03-14T04:08:30;12.50;1.00
10901;DHT22;5503;53.208;10.392;2023-03-14T04:10:58;12.50;1.00
10901;DHT22;5503;53.208;10.392;2023-03-14T04:13:26;12.40;1.00
10901;DHT22;5503;53.208;10.392;2023-03-14T04:15:54;12.70;1.00
10901;DHT22;5503;53.208;10.392;2023-03-14T04:18:21;12.60;1.00
10901;DHT22;5503;53.208;10.392;2023-03-14T04:20:51;12.60;1.00
10901;DHT22;5503;53.208;10.392;2023-03-14T04:23:19;12.60;1.00
10901;DHT22;5503;53.208;10.392;2023-03-14T04:25:47;13.50;1.00
10901;DHT22;5503;53.208;10.392;2023-03-14T04:28:14;12.70;1.00
10901;DHT22;5503;53.208;10.392;2023-03-14T04:30:40;12.70;1.00
10901;DHT22;5503;53.208;10.392;2023-03-14T04:33:07;12.70;1.00
10901;DHT22;5503;53.208;10.392;2023-03-14T04:35:35;12.60;1.00
10901;DHT22;5503;53.208;10.392;2023-03-14T04:38:02;12.80;1.00
10901;DHT22;5503;53.208;10.392;2023-03-14T04:40:31;13.00;1.00
10901;DHT22;5503;53.208;10.392;2023-03-14T04:42:57;12.90;1.00
10901;DHT22;5503;53.208;10.392;2023-03-14T04:45:24;12.80;1.00
10901;DHT22;5503;53.208;10.392;2023-03-14T04:47:51;12.70;1.00
10901;DHT22;5503;53.208;10.392;2023-03-14T04:50:18;12.70;1.00
10901;DHT22;5503;53.208;10.392;2023-03-14T04:52:45;12.70;1.00
10901;DHT22;5503;53.208;10.392;2023-03-14T04:55:12;12.70;1.00
10901;DHT22;5503;53.208;10.392;2023-03-14T04:57:40;13.30;1.00
10901;DHT22;5503;53.208;10.392;2023-03-14T05:00:08;12.80;1.00
10901;DHT22;5503;53.208;10.392;2023-03-14T05:02:35;12.70;1.00
10901;DHT22;5503;53.208;10.392;2023-03-14T05:05:02;12.70;1.00
10901;DHT22;5503;53.208;10.392;2023-03-14T05:07:29;12.60;1.00
10901;DHT22;5503;53.208;10.392;2023-03-14T05:09:56;12.40;1.00
10901;DHT22;5503;53.208;10.392;2023-03-14T05:12:23;12.50;1.00
10901;DHT22;5503;53.208;10.392;2023-03-14T05:14:51;12.40;1.00
10901;DHT22;5503;53.208;10.392;2023-03-14T05:17:18;12.40;1.00
10901;DHT22;5503;53.208;10.392;2023-03-14T05:19:45;12.40;1.00
10901;DHT22;5503;53.208;10.392;2023-03-14T05:22:12;12.60;1.00
10901;DHT22;5503;53.208;10.392;2023-03-14T05:24:39;12.50;1.00
10901;DHT22;5503;53.208;10.392;2023-03-14T05:27:06;12.50;1.00
10901;DHT22;5503;53.208;10.392;2023-03-14T05:29:33;12.40;1.00
10901;DHT22;5503;53.208;10.392;2023-03-14T05:32:01;12.50;1.00
10901;DHT22;5503;53.208;10.392;2023-03-14T05:34:28;12.40;1.00
10901;DHT22;5503;53.208;10.392;2023-03-14T05:36:55;12.30;1.00
10901;DHT22;5503;53.208;10.392;2023-03-14T05:39:22;12.40;1.00
10901;DHT22;5503;53.208;10.392;2023-03-14T05:41:49;12.30;1.00
10901;DHT22;5503;53.208;10.392;2023-03-14T05:44:16;12.20;1.00
10901;DHT22;5503;53.208;10.392;2023-03-14T05:46:43;11.90;4.70
10901;DHT22;5503;53.208;10.392;2023-03-14T05:49:11;13.80;7.80
10901;DHT22;5503;53.208;10.392;2023-03-14T05:51:38;10.70;3.90
10901;DHT22;5503;53.208;10.392;2023-03-14T05:54:05;11.90;4.10
10901;DHT22;5503;53.208;10.392;2023-03-14T05:56:32;14.40;5.70
10901;DHT22;5503;53.208;10.392;2023-03-14T05:58:59;11.80;1.90
10901;DHT22;5503;53.208;10.392;2023-03-14T06:01:27;13.90;4.70
10901;DHT22;5503;53.208;10.392;2023-03-14T06:03:57;11.70;5.20
10901;DHT22;5503;53.208;10.392;2023-03-14T06:06:26;11.70;5.50
10901;DHT22;5503;53.208;10.392;2023-03-14T06:08:52;11.70;4.20
10901;DHT22;5503;53.208;10.392;2023-03-14T06:11:19;11.60;4.00
10901;DHT22;5503;53.208;10.392;2023-03-14T06:13:46;11.60;5.20
10901;DHT22;5503;53.208;10.392;2023-03-14T06:16:13;11.60;5.30
10901;DHT22;5503;53.208;10.392;2023-03-14T06:18:40;11.60;5.30
10901;DHT22;5503;53.208;10.392;2023-03-14T06:21:07;12.30;2.50
10901;DHT22;5503;53.208;10.392;2023-03-14T06:23:36;11.50;3.50
10901;DHT22;5503;53.208;10.392;2023-03-14T06:26:03;11.60;4.00
10901;DHT22;5503;53.208;10.392;2023-03-14T06:28:30;11.60;1.90
10901;DHT22;5503;53.208;10.392;2023-03-14T06:30:58;11.70;3.20
10901;DHT22;5503;53.208;10.392;2023-03-14T06:35:52;11.70;1.00
10901;DHT22;5503;53.208;10.392;2023-03-14T06:38:19;11.70;1.00
10901;DHT22;5503;53.208;10.392;2023-03-14T06:40:48;11.70;1.00
10901;DHT22;5503;53.208;10.392;2023-03-14T06:43:14;11.60;1.60
10901;DHT22;5503;53.208;10.392;2023-03-14T06:45:41;11.50;2.40
10901;DHT22;5503;53.208;10.392;2023-03-14T06:48:08;11.70;1.00
10901;DHT22;5503;53.208;10.392;2023-03-14T06:50:36;11.50;1.00
10901;DHT22;5503;53.208;10.392;2023-03-14T06:53:03;11.60;1.00
10901;DHT22;5503;53.208;10.392;2023-03-14T06:55:30;11.50;1.00
10901;DHT22;5503;53.208;10.392;2023-03-14T06:57:58;11.50;3.50
10901;DHT22;5503;53.208;10.392;2023-03-14T07:00:25;11.50;1.00
10901;DHT22;5503;53.208;10.392;2023-03-14T07:02:52;11.40;8.80
10901;DHT22;5503;53.208;10.392;2023-03-14T07:05:19;11.40;12.80
10901;DHT22;5503;53.208;10.392;2023-03-14T07:07:46;13.40;32.10
10901;DHT22;5503;53.208;10.392;2023-03-14T07:10:13;11.10;38.20
10901;DHT22;5503;53.208;10.392;2023-03-14T07:12:40;11.00;32.10
10901;DHT22;5503;53.208;10.392;2023-03-14T07:15:09;10.90;45.30
10901;DHT22;5503;53.208;10.392;2023-03-14T07:17:36;11.00;44.10
10901;DHT22;5503;53.208;10.392;2023-03-14T07:20:03;10.90;48.80
10901;DHT22;5503;53.208;10.392;2023-03-14T07:22:31;10.90;49.60
10901;DHT22;5503;53.208;10.392;2023-03-14T07:24:58;11.00;53.50
10901;DHT22;5503;53.208;10.392;2023-03-14T07:27:25;11.10;48.90
10901;DHT22;5503;53.208;10.392;2023-03-14T07:29:51;11.20;48.40
10901;DHT22;5503;53.208;10.392;2023-03-14T07:32:20;11.10;55.90
10901;DHT22;5503;53.208;10.392;2023-03-14T07:34:46;11.00;51.20
10901;DHT22;5503;53.208;10.392;2023-03-14T07:37:13;10.90;58.50
10901;DHT22;5503;53.208;10.392;2023-03-14T07:39:40;10.80;63.40
10901;DHT22;5503;53.208;10.392;2023-03-14T07:42:07;11.30;71.50
10901;DHT22;5503;53.208;10.392;2023-03-14T07:44:34;12.30;70.70
10901;DHT22;5503;53.208;10.392;2023-03-14T07:47:01;10.80;62.10
10901;DHT22;5503;53.208;10.392;2023-03-14T07:49:29;10.90;55.20
10901;DHT22;5503;53.208;10.392;2023-03-14T07:51:56;13.60;49.00
10901;DHT22;5503;53.208;10.392;2023-03-14T07:54:23;11.10;39.20
10901;DHT22;5503;53.208;10.392;2023-03-14T07:56:50;11.20;42.10
10901;DHT22;5503;53.208;10.392;2023-03-14T07:59:18;11.30;32.00
10901;DHT22;5503;53.208;10.392;2023-03-14T08:01:45;11.40;27.30
10901;DHT22;5503;53.208;10.392;2023-03-14T08:04:11;11.60;23.70
10901;DHT22;5503;53.208;10.392;2023-03-14T08:06:40;11.70;16.70
10901;DHT22;5503;53.208;10.392;2023-03-14T08:09:07;11.70;17.30
10901;DHT22;5503;53.208;10.392;2023-03-14T08:11:34;11.80;12.70
10901;DHT22;5503;53.208;10.392;2023-03-14T08:14:01;12.10;7.10
10901;DHT22;5503;53.208;10.392;2023-03-14T08:16:28;13.60;10.50
10901;DHT22;5503;53.208;10.392;2023-03-14T08:18:54;12.40;6.60
10901;DHT22;5503;53.208;10.392;2023-03-14T08:21:22;11.70;1.00
10901;DHT22;5503;53.208;10.392;2023-03-14T08:23:50;12.50;1.00
10901;DHT22;5503;53.208;10.392;2023-03-14T08:28:44;12.70;1.00
10901;DHT22;5503;53.208;10.392;2023-03-14T08:31:11;12.90;1.00
10901;DHT22;5503;53.208;10.392;2023-03-14T08:36:06;13.00;1.00
10901;DHT22;5503;53.208;10.392;2023-03-14T08:41:02;13.00;1.00
10901;DHT22;5503;53.208;10.392;2023-03-14T08:43:29;13.00;1.00
10901;DHT22;5503;53.208;10.392;2023-03-14T08:45:57;13.00;1.00
10901;DHT22;5503;53.208;10.392;2023-03-14T08:50:52;13.00;1.00
10901;DHT22;5503;53.208;10.392;2023-03-14T08:55:52;13.30;1.00
10901;DHT22;5503;53.208;10.392;2023-03-14T08:58:20;13.10;1.00
10901;DHT22;5503;53.208;10.392;2023-03-14T09:00:49;13.20;1.00
10901;DHT22;5503;53.208;10.392;2023-03-14T09:03:16;13.20;1.00
10901;DHT22;5503;53.208;10.392;2023-03-14T09:08:10;13.70;1.00
10901;DHT22;5503;53.208;10.392;2023-03-14T09:10:37;14.20;1.00
10901;DHT22;5503;53.208;10.392;2023-03-14T09:13:04;14.00;1.00
10901;DHT22;5503;53.208;10.392;2023-03-14T09:15:32;14.10;1.00
10901;DHT22;5503;53.208;10.392;2023-03-14T09:17:59;14.00;1.00
10901;DHT22;5503;53.208;10.392;2023-03-14T09:22:53;13.70;1.00
10901;DHT22;5503;53.208;10.392;2023-03-14T09:25:20;13.90;1.00
10901;DHT22;5503;53.208;10.392;2023-03-14T09:27:47;14.70;1.00
10901;DHT22;5503;53.208;10.392;2023-03-14T09:30:14;13.80;1.00
10901;DHT22;5503;53.208;10.392;2023-03-14T09:32:42;13.90;1.00
10901;DHT22;5503;53.208;10.392;2023-03-14T09:35:09;13.80;1.00
10901;DHT22;5503;53.208;10.392;2023-03-14T09:37:36;13.80;1.00
10901;DHT22;5503;53.208;10.392;2023-03-14T09:40:04;13.50;1.00
10901;DHT22;5503;53.208;10.392;2023-03-14T09:42:37;13.60;1.00
10901;DHT22;5503;53.208;10.392;2023-03-14T09:45:09;13.70;1.00
10901;DHT22;5503;53.208;10.392;2023-03-14T09:47:37;13.70;1.00
10901;DHT22;5503;53.208;10.392;2023-03-14T09:50:11;12.70;1.00
10901;DHT22;5503;53.208;10.392;2023-03-14T09:52:40;13.70;1.00
10901;DHT22;5503;53.208;10.392;2023-03-14T09:55:11;13.60;1.00
10901;DHT22;5503;53.208;10.392;2023-03-14T09:57:40;13.70;1.00
10901;DHT22;5503;53.208;10.392;2023-03-14T10:00:14;13.60;1.00
10901;DHT22;5503;53.208;10.392;2023-03-14T10:02:46;13.70;1.00
10901;DHT22;5503;53.208;10.392;2023-03-14T10:05:19;13.80;1.00
10901;DHT22;5503;53.208;10.392;2023-03-14T10:07:46;13.80;1.00
10901;DHT22;5503;53.208;10.392;2023-03-14T10:10:16;13.90;1.00
10901;DHT22;5503;53.208;10.392;2023-03-14T10:12:46;14.00;1.00
10901;DHT22;5503;53.208;10.392;2023-03-14T10:15:15;14.00;1.00
10901;DHT22;5503;53.208;10.392;2023-03-14T10:17:50;16.60;1.00
10901;DHT22;5503;53.208;10.392;2023-03-14T10:20:30;13.70;1.00
10901;DHT22;5503;53.208;10.392;2023-03-14T10:22:59;14.00;1.00
10901;DHT22;5503;53.208;10.392;2023-03-14T10:25:29;13.70;1.00
10901;DHT22;5503;53.208;10.392;2023-03-14T10:30:40;13.50;1.00
10901;DHT22;5503;53.208;10.392;2023-03-14T10:33:10;13.00;1.00
10901;DHT22;5503;53.208;10.392;2023-03-14T10:35:39;12.80;13.70
10901;DHT22;5503;53.208;10.392;2023-03-14T10:38:12;12.30;39.90
10901;DHT22;5503;53.208;10.392;2023-03-14T10:40:42;14.00;62.70
10901;DHT22;5503;53.208;10.392;2023-03-14T10:43:17;11.30;81.80
10901;DHT22;5503;53.208;10.392;2023-03-14T10:45:51;11.20;95.70
10901;DHT22;5503;53.208;10.392;2023-03-14T10:48:25;11.20;98.20
10901;DHT22;5503;53.208;10.392;2023-03-14T10:51:03;11.10;99.90
10901;DHT22;5503;53.208;10.392;2023-03-14T10:53:38;11.00;99.60
10901;DHT22;5503;53.208;10.392;2023-03-14T10:56:06;13.70;95.90
10901;DHT22;5503;53.208;10.392;2023-03-14T10:58:35;10.30;62.40
10901;DHT22;5503;53.208;10.392;2023-03-14T11:01:12;9.30;92.20
10901;DHT22;5503;53.208;10.392;2023-03-14T11:03:43;9.00;99.90
10901;DHT22;5503;53.208;10.392;2023-03-14T11:06:19;9.00;99.90
10901;DHT22;5503;53.208;10.392;2023-03-14T11:08:53;9.00;99.90
10901;DHT22;5503;53.208;10.392;2023-03-14T11:11:24;8.90;99.90
10901;DHT22;5503;53.208;10.392;2023-03-14T11:14:00;8.60;98.20
10901;DHT22;5503;53.208;10.392;2023-03-14T11:16:37;8.40;95.50
10901;DHT22;5503;53.208;10.392;2023-03-14T11:19:17;8.20;94.10
10901;DHT22;5503;53.208;10.392;2023-03-14T11:21:53;8.00;92.60
10901;DHT22;5503;53.208;10.392;2023-03-14T11:24:37;7.80;96.70
10901;DHT22;5503;53.208;10.392;2023-03-14T11:27:14;7.60;99.90
10901;DHT22;5503;53.208;10.392;2023-03-14T11:29:50;9.60;99.90
10901;DHT22;5503;53.208;10.392;2023-03-14T11:32:36;7.40;99.90
10901;DHT22;5503;53.208;10.392;2023-03-14T11:35:20;7.30;99.90
10901;DHT22;5503;53.208;10.392;2023-03-14T11:37:53;6.90;99.90
10901;DHT22;5503;53.208;10.392;2023-03-14T11:40:23;6.70;99.90
10901;DHT22;5503;53.208;10.392;2023-03-14T11:42:57;6.70;99.90
10901;DHT22;5503;53.208;10.392;2023-03-14T11:45:30;6.60;99.90
10901;DHT22;5503;53.208;10.392;2023-03-14T11:48:13;6.50;99.90
10901;DHT22;5503;53.208;10.392;2023-03-14T11:50:43;6.00;99.20
10901;DHT22;5503;53.208;10.392;2023-03-14T11:53:16;5.70;97.20
10901;DHT22;5503;53.208;10.392;2023-03-14T11:58:17;5.50;91.20
10901;DHT22;5503;53.208;10.392;2023-03-14T12:00:47;5.30;90.80
10901;DHT22;5503;53.208;10.392;2023-03-14T12:03:23;5.30;92.90
10901;DHT22;5503;53.208;10.392;2023-03-14T12:06:00;5.50;90.50
10901;DHT22;5503;53.208;10.392;2023-03-14T12:08:51;5.40;78.00
10901;DHT22;5503;53.208;10.392;2023-03-14T12:11:24;5.30;95.80
10901;DHT22;5503;53.208;10.392;2023-03-14T12:13:53;5.30;89.50
10901;DHT22;5503;53.208;10.392;2023-03-14T12:16:35;5.10;91.40
10901;DHT22;5503;53.208;10.392;2023-03-14T12:19:33;5.20;93.40
10901;DHT22;5503;53.208;10.392;2023-03-14T12:22:25;5.30;91.60
10901;DHT22;5503;53.208;10.392;2023-03-14T12:24:58;5.30;84.30
10901;DHT22;5503;53.208;10.392;2023-03-14T12:27:48;5.30;81.40
10901;DHT22;5503;53.208;10.392;2023-03-14T12:30:33;5.10;76.10
10901;DHT22;5503;53.208;10.392;2023-03-14T12:36:12;5.10;76.80
10901;DHT22;5503;53.208;10.392;2023-03-14T12:39:04;1.70;75.50
10901;DHT22;5503;53.208;10.392;2023-03-14T12:41:40;5.30;77.10
10901;DHT22;5503;53.208;10.392;2023-03-14T12:44:47;5.40;53.30
10901;DHT22;5503;53.208;10.392;2023-03-14T12:47:44;5.30;55.10
10901;DHT22;5503;53.208;10.392;2023-03-14T12:50:15;5.20;50.90
10901;DHT22;5503;53.208;10.392;2023-03-14T12:52:52;5.10;58.80
10901;DHT22;5503;53.208;10.392;2023-03-14T12:55:31;6.10;57.00
10901;DHT22;5503;53.208;10.392;2023-03-14T12:58:05;5.00;51.00
10901;DHT22;5503;53.208;10.392;2023-03-14T13:00:37;5.10;51.10
10901;DHT22;5503;53.208;10.392;2023-03-14T13:03:17;4.90;33.60
10901;DHT22;5503;53.208;10.392;2023-03-14T13:05:55;4.90;40.60
10901;DHT22;5503;53.208;10.392;2023-03-14T13:08:35;5.00;32.20
10901;DHT22;5503;53.208;10.392;2023-03-14T13:11:05;5.00;28.60
10901;DHT22;5503;53.208;10.392;2023-03-14T13:13:36;5.10;22.60
10901;DHT22;5503;53.208;10.392;2023-03-14T13:18:35;5.30;20.40
10901;DHT22;5503;53.208;10.392;2023-03-14T13:21:05;5.40;10.60
10901;DHT22;5503;53.208;10.392;2023-03-14T13:23:35;5.50;4.60
10901;DHT22;5503;53.208;10.392;2023-03-14T13:28:32;5.80;11.60
10901;DHT22;5503;53.208;10.392;2023-03-14T13:31:03;6.00;2.00
10901;DHT22;5503;53.208;10.392;2023-03-14T13:33:33;6.20;6.90
10901;DHT22;5503;53.208;10.392;2023-03-14T13:36:02;6.20;4.30
10901;DHT22;5503;53.208;10.392;2023-03-14T13:38:31;6.40;8.80
10901;DHT22;5503;53.208;10.392;2023-03-14T13:40:59;6.30;5.70
10901;DHT22;5503;53.208;10.392;2023-03-14T13:43:30;5.70;28.80
10901;DHT22;5503;53.208;10.392;2023-03-14T13:46:03;5.80;28.40
10901;DHT22;5503;53.208;10.392;2023-03-14T13:48:33;5.30;50.00
10901;DHT22;5503;53.208;10.392;2023-03-14T13:51:04;5.30;40.20
10901;DHT22;5503;53.208;10.392;2023-03-14T13:53:32;5.50;52.50
10901;DHT22;5503;53.208;10.392;2023-03-14T13:56:02;5.50;29.50
10901;DHT22;5503;53.208;10.392;2023-03-14T13:58:31;5.70;29.30
10901;DHT22;5503;53.208;10.392;2023-03-14T14:01:12;5.60;16.60
10901;DHT22;5503;53.208;10.392;2023-03-14T14:03:41;6.00;13.10
10901;DHT22;5503;53.208;10.392;2023-03-14T14:06:16;6.00;13.50
10901;DHT22;5503;53.208;10.392;2023-03-14T14:08:44;6.30;10.30
10901;DHT22;5503;53.208;10.392;2023-03-14T14:11:21;6.50;1.00
10901;DHT22;5503;53.208;10.392;2023-03-14T14:13:49;6.40;1.00
10901;DHT22;5503;53.208;10.392;2023-03-14T14:16:19;6.40;1.00
10901;DHT22;5503;53.208;10.392;2023-03-14T14:26:14;5.80;1.00
10901;DHT22;5503;53.208;10.392;2023-03-14T14:31:21;6.20;1.00
10901;DHT22;5503;53.208;10.392;2023-03-14T14:33:55;6.20;1.00
10901;DHT22;5503;53.208;10.392;2023-03-14T14:36:24;6.10;1.00
10901;DHT22;5503;53.208;10.392;2023-03-14T14:38:53;6.10;1.00
10901;DHT22;5503;53.208;10.392;2023-03-14T14:43:51;6.10;1.00
10901;DHT22;5503;53.208;10.392;2023-03-14T14:46:20;6.20;1.00
10901;DHT22;5503;53.208;10.392;2023-03-14T14:51:26;6.20;1.00
10901;DHT22;5503;53.208;10.392;2023-03-14T14:54:18;6.00;1.00
10901;DHT22;5503;53.208;10.392;2023-03-14T14:56:50;5.90;1.00
10901;DHT22;5503;53.208;10.392;2023-03-14T14:59:25;6.20;1.00
10901;DHT22;5503;53.208;10.392;2023-03-14T15:01:57;6.20;1.00
10901;DHT22;5503;53.208;10.392;2023-03-14T15:04:25;10.00;1.00
10901;DHT22;5503;53.208;10.392;2023-03-14T15:19:14;6.00;1.00
10901;DHT22;5503;53.208;10.392;2023-03-14T15:31:34;6.50;1.00
10901;DHT22;5503;53.208;10.392;2023-03-14T15:36:32;6.30;1.00
10901;DHT22;5503;53.208;10.392;2023-03-14T15:48:50;6.00;1.00
10901;DHT22;5503;53.208;10.392;2023-03-14T15:53:46;6.10;1.00
10901;DHT22;5503;53.208;10.392;2023-03-14T15:56:15;6.10;1.00
10901;DHT22;5503;53.208;10.392;2023-03-14T16:01:12;6.20;1.00
10901;DHT22;5503;53.208;10.392;2023-03-14T16:11:05;6.00;1.00
10901;DHT22;5503;53.208;10.392;2023-03-14T16:16:00;6.30;1.00
10901;DHT22;5503;53.208;10.392;2023-03-14T16:18:30;6.30;1.00
10901;DHT22;5503;53.208;10.392;2023-03-14T16:20:58;6.20;1.00
10901;DHT22;5503;53.208;10.392;2023-03-14T16:23:26;6.10;1.00
10901;DHT22;5503;53.208;10.392;2023-03-14T16:25:54;6.00;1.00
10901;DHT22;5503;53.208;10.392;2023-03-14T16:28:23;6.00;1.00
10901;DHT22;5503;53.208;10.392;2023-03-14T16:33:18;5.70;1.00
10901;DHT22;5503;53.208;10.392;2023-03-14T16:35:55;5.80;1.00
10901;DHT22;5503;53.208;10.392;2023-03-14T16:40:57;5.80;1.00
10901;DHT22;5503;53.208;10.392;2023-03-14T16:43:26;5.90;1.00
10901;DHT22;5503;53.208;10.392;2023-03-14T16:50:49;6.30;1.00
10901;DHT22;5503;53.208;10.392;2023-03-14T16:53:16;6.10;1.00
10901;DHT22;5503;53.208;10.392;2023-03-14T16:55:44;6.10;1.00
10901;DHT22;5503;53.208;10.392;2023-03-14T16:58:11;5.90;1.00
10901;DHT22;5503;53.208;10.392;2023-03-14T17:00:40;5.90;1.00
10901;DHT22;5503;53.208;10.392;2023-03-14T17:17:52;6.20;1.00
10901;DHT22;5503;53.208;10.392;2023-03-14T17:30:09;5.50;1.00
10901;DHT22;5503;53.208;10.392;2023-03-14T17:35:05;5.70;1.00
10901;DHT22;5503;53.208;10.392;2023-03-14T17:52:20;5.60;1.00
10901;DHT22;5503;53.208;10.392;2023-03-14T18:09:31;5.30;1.00
10901;DHT22;5503;53.208;10.392;2023-03-14T18:26:44;5.10;1.00
10901;DHT22;5503;53.208;10.392;2023-03-14T18:29:11;5.10;1.00
10901;DHT22;5503;53.208;10.392;2023-03-14T18:34:06;5.10;1.00
10901;DHT22;5503;53.208;10.392;2023-03-14T18:43:57;5.00;1.00
10901;DHT22;5503;53.208;10.392;2023-03-14T18:51:23;4.80;1.00
10901;DHT22;5503;53.208;10.392;2023-03-14T18:53:51;4.70;1.00
10901;DHT22;5503;53.208;10.392;2023-03-14T19:01:15;4.70;1.00
10901;DHT22;5503;53.208;10.392;2023-03-14T19:03:44;5.00;1.00
10901;DHT22;5503;53.208;10.392;2023-03-14T19:08:39;4.90;1.00
10901;DHT22;5503;53.208;10.392;2023-03-14T19:11:09;5.10;1.00
10901;DHT22;5503;53.208;10.392;2023-03-14T19:13:37;5.20;1.00
10901;DHT22;5503;53.208;10.392;2023-03-14T19:16:05;5.20;1.00
10901;DHT22;5503;53.208;10.392;2023-03-14T19:18:34;7.80;1.00
10901;DHT22;5503;53.208;10.392;2023-03-14T19:21:03;5.20;1.00
10901;DHT22;5503;53.208;10.392;2023-03-14T19:23:32;5.10;1.00
10901;DHT22;5503;53.208;10.392;2023-03-14T19:33:21;4.90;1.00
10901;DHT22;5503;53.208;10.392;2023-03-14T19:35:50;5.00;1.00